Time;durP1;ratioP1;P1;durP2;ratioP2;P2;SDS_P1;SDS_P2;PMS_P1;PMS_P2;Temp;Humidity;BMP_temperature;BMP_pressure;BME280_temperature;BME280_humidity;BME280_pressure;Samples;Min_cycle;Max_cycle;Signal;HPM_P1;HPM_P2
2022/11/01 00:01:43;;;;;;;20.43;13.10;;;;;;;11.37;100.00;96260.47;5017021;28;20061;-77
2022/11/01 00:04:09;;;;;;;16.87;11.60;;;;;;;11.35;100.00;96253.72;5015231;28;20064;-77
2022/11/01 00:06:35;;;;;;;23.53;13.20;;;;;;;11.35;100.00;96254.53;5031659;28;20029;-77
2022/11/01 00:09:02;;;;;;;25.87;12.57;;;;;;;11.33;100.00;96259.97;5031619;28;20029;-77
2022/11/01 00:11:28;;;;;;;18.43;12.37;;;;;;;11.36;100.00;96257.97;5031334;28;20048;-76
2022/11/01 00:13:53;;;;;;;17.67;11.93;;;;;;;11.40;100.00;96254.88;5030300;28;20262;-77
2022/11/01 00:16:20;;;;;;;18.07;12.23;;;;;;;11.36;100.00;96248.25;5031724;28;20064;-77
2022/11/01 00:18:47;;;;;;;18.90;11.97;;;;;;;11.28;100.00;96253.53;5030165;28;20106;-77
2022/11/01 00:21:13;;;;;;;19.47;12.33;;;;;;;11.25;100.00;96253.84;5031317;28;20033;-77
2022/11/01 00:23:39;;;;;;;19.90;11.77;;;;;;;11.18;100.00;96258.94;5031250;28;20025;-77
2022/11/01 00:26:06;;;;;;;22.70;12.50;;;;;;;11.15;100.00;96250.56;5029997;28;20033;-77
2022/11/01 00:28:33;;;;;;;23.93;14.07;;;;;;;11.13;100.00;96247.25;5029803;28;20112;-77
2022/11/01 00:30:59;;;;;;;18.83;13.07;;;;;;;11.13;100.00;96255.16;5030991;28;20113;-76
2022/11/01 00:33:25;;;;;;;21.47;12.90;;;;;;;11.12;100.00;96251.69;5029971;28;20498;-77
2022/11/01 00:35:58;;;;;;;20.63;14.07;;;;;;;11.15;100.00;96256.63;5016349;28;20036;-77
2022/11/01 00:38:24;;;;;;;21.05;13.38;;;;;;;11.18;100.00;96260.75;5049751;28;20033;-77
2022/11/01 00:40:49;;;;;;;21.93;13.33;;;;;;;11.20;100.00;96264.88;5030553;28;20422;-77
2022/11/01 00:43:15;;;;;;;19.57;12.80;;;;;;;11.25;100.00;96267.03;5031202;28;20386;-77
2022/11/01 00:45:44;;;;;;;20.27;13.70;;;;;;;11.32;100.00;96268.84;5029678;28;20033;-77
2022/11/01 00:48:13;;;;;;;23.17;13.30;;;;;;;11.31;100.00;96271.63;5029849;28;20111;-77
2022/11/01 00:50:40;;;;;;;19.67;12.90;;;;;;;11.30;100.00;96262.94;5030810;28;20034;-78
2022/11/01 00:53:06;;;;;;;22.60;13.63;;;;;;;11.34;100.00;96260.78;5029680;28;20415;-76
2022/11/01 00:55:32;;;;;;;21.90;12.37;;;;;;;11.23;100.00;96261.09;5031056;28;20044;-77
2022/11/01 00:57:58;;;;;;;17.73;12.03;;;;;;;11.15;100.00;96271.63;5029529;28;20037;-76
2022/11/01 01:00:23;;;;;;;20.63;13.27;;;;;;;11.06;100.00;96266.31;5030023;28;20091;-77
2022/11/01 01:02:49;;;;;;;18.30;12.23;;;;;;;11.03;100.00;96268.44;5030538;28;20083;-77
2022/11/01 01:05:15;;;;;;;22.80;14.67;;;;;;;10.99;100.00;96262.69;5031552;28;20047;-77
2022/11/01 01:07:41;;;;;;;23.57;13.13;;;;;;;11.00;100.00;96269.63;5030775;28;20782;-77
2022/11/01 01:10:07;;;;;;;21.83;12.83;;;;;;;10.99;100.00;96257.41;5013038;28;20025;-77
2022/11/01 01:12:33;;;;;;;22.23;15.13;;;;;;;10.94;100.00;96258.91;5030845;28;20034;-76
2022/11/01 01:14:59;;;;;;;22.00;13.13;;;;;;;10.89;100.00;96262.00;5030561;28;20037;-77
2022/11/01 01:17:24;;;;;;;19.90;12.33;;;;;;;10.89;100.00;96266.44;5030531;28;20258;-77
2022/11/01 01:19:50;;;;;;;20.27;13.47;;;;;;;10.84;100.00;96264.31;5029139;28;20161;-77
2022/11/01 01:22:16;;;;;;;21.27;13.27;;;;;;;10.77;100.00;96269.38;5029728;28;20061;-76
2022/11/01 01:24:44;;;;;;;19.87;13.27;;;;;;;10.75;100.00;96260.00;5029194;28;20098;-77
2022/11/01 01:27:11;;;;;;;22.07;13.57;;;;;;;10.74;100.00;96266.25;5028634;28;20046;-76
2022/11/01 01:29:40;;;;;;;21.10;13.53;;;;;;;10.71;100.00;96269.19;5028610;28;20040;-77
2022/11/01 01:32:20;;;;;;;19.60;12.97;;;;;;;10.72;100.00;96265.56;5010131;28;20040;-77
2022/11/01 01:34:46;;;;;;;19.37;11.90;;;;;;;10.73;100.00;96267.22;5028642;28;20045;-77
2022/11/01 01:37:14;;;;;;;24.73;13.03;;;;;;;10.77;100.00;96271.19;5028657;28;20505;-77
2022/11/01 01:39:40;;;;;;;18.70;12.03;;;;;;;10.74;100.00;96258.34;5030117;28;20068;-77
2022/11/01 01:42:27;;;;;;;19.63;11.57;;;;;;;10.72;100.00;96261.13;5029964;28;20025;-77
2022/11/01 01:44:55;;;;;;;20.00;11.73;;;;;;;10.74;100.00;96253.91;5029649;28;20080;-76
2022/11/01 01:47:32;;;;;;;18.73;11.67;;;;;;;10.75;100.00;96246.84;5028686;28;20438;-77
2022/11/01 01:50:03;;;;;;;20.87;10.43;;;;;;;10.76;100.00;96253.75;5028837;28;20072;-77
2022/11/01 01:52:32;;;;;;;18.93;10.77;;;;;;;10.75;100.00;96244.22;5029896;28;20030;-77
2022/11/01 01:55:03;;;;;;;15.97;10.33;;;;;;;10.71;100.00;96246.34;5028580;28;20479;-76
2022/11/01 01:57:30;;;;;;;20.10;11.37;;;;;;;10.70;100.00;96241.25;5029348;28;20040;-76
2022/11/01 01:59:56;;;;;;;14.20;9.67;;;;;;;10.75;100.00;96244.22;5027041;28;20030;-76
2022/11/01 02:02:23;;;;;;;16.97;9.77;;;;;;;10.71;100.00;96237.63;5009731;28;20503;-77
2022/11/01 02:04:59;;;;;;;16.13;10.67;;;;;;;10.71;100.00;96237.63;5029989;28;20437;-77
2022/11/01 02:07:25;;;;;;;18.67;11.13;;;;;;;10.71;100.00;96246.34;5028422;28;20040;-77
2022/11/01 02:09:54;;;;;;;21.70;11.67;;;;;;;10.73;100.00;96244.38;5028172;28;20124;-77
2022/11/01 02:12:23;;;;;;;17.17;10.03;;;;;;;10.71;100.00;96240.25;5028317;28;20025;-77
2022/11/01 02:14:49;;;;;;;20.60;10.47;;;;;;;10.69;100.00;96240.41;5029631;28;20029;-76
2022/11/01 02:17:28;;;;;;;13.50;10.47;;;;;;;10.72;100.00;96236.63;5029367;28;20040;-76
2022/11/01 02:20:31;;;;;;;18.33;10.23;;;;;;;10.71;100.00;96240.25;5028609;28;20044;-77
2022/11/01 02:23:08;;;;;;;17.27;10.63;;;;;;;10.66;100.00;96232.00;5029635;28;20035;-77
2022/11/01 02:25:46;;;;;;;16.53;10.90;;;;;;;10.64;100.00;96234.81;5025253;28;20042;-77
2022/11/01 02:28:31;;;;;;;16.67;9.93;;;;;;;10.65;100.00;96233.00;5030031;28;20033;-77
2022/11/01 02:31:30;;;;;;;19.40;11.23;;;;;;;10.62;100.00;96244.66;5027306;28;20029;-77
2022/11/01 02:34:27;;;;;;;14.63;9.63;;;;;;;10.66;100.00;96237.28;5005040;28;20072;-77
2022/11/01 02:37:27;;;;;;;16.17;10.03;;;;;;;10.64;100.00;96247.16;5025714;28;20152;-77
2022/11/01 02:39:58;;;;;;;19.90;11.70;;;;;;;10.63;100.00;96243.69;5029341;28;20108;-77
2022/11/01 02:42:30;;;;;;;17.50;10.33;;;;;;;10.57;100.00;96237.25;5031758;28;20029;-78
2022/11/01 02:45:28;;;;;;;17.27;11.13;;;;;;;10.58;100.00;96243.34;5030806;28;20042;-77
2022/11/01 02:47:58;;;;;;;17.83;10.23;;;;;;;10.54;100.00;96244.66;5025580;28;20046;-77
2022/11/01 02:50:35;;;;;;;13.50;9.30;;;;;;;10.55;100.00;96236.59;5028520;28;20570;-76
2022/11/01 02:53:00;;;;;;;16.60;9.70;;;;;;;10.57;100.00;96246.97;5027996;28;20506;-76
2022/11/01 02:55:29;;;;;;;21.00;10.10;;;;;;;10.55;100.00;96241.84;5030059;28;20095;-76
2022/11/01 02:58:21;;;;;;;20.80;10.10;;;;;;;10.45;100.00;96238.50;5032630;28;20095;-76
2022/11/01 03:00:47;;;;;;;14.80;10.27;;;;;;;10.51;100.00;96239.69;5033413;28;20376;-76
2022/11/01 03:03:18;;;;;;;20.40;9.97;;;;;;;10.54;100.00;96244.66;5031916;28;20128;-77
2022/11/01 03:06:08;;;;;;;12.83;8.67;;;;;;;10.45;100.00;96248.22;5048607;28;20065;-76
2022/11/01 03:08:37;;;;;;;16.70;8.80;;;;;;;10.47;100.00;96252.34;5028567;28;20127;-77
2022/11/01 03:11:33;;;;;;;15.27;9.97;;;;;;;10.40;100.00;96248.69;5026051;28;20112;-76
2022/11/01 03:14:54;;;;;;;15.93;9.80;;;;;;;10.49;100.00;96249.53;5033188;28;20052;-77
2022/11/01 03:17:48;;;;;;;12.53;8.33;;;;;;;10.44;100.00;96247.41;5023638;28;20140;-76
2022/11/01 03:20:58;;;;;;;14.70;9.07;;;;;;;10.40;100.00;96251.31;5031600;28;20103;-76
2022/11/01 03:23:42;;;;;;;17.90;8.93;;;;;;;10.34;100.00;96247.50;5041314;28;20076;-77
2022/11/01 03:26:11;;;;;;;15.30;8.80;;;;;;;10.43;100.00;96250.16;5015155;28;20061;-77
2022/11/01 03:28:44;;;;;;;13.07;7.47;;;;;;;10.44;100.00;96255.28;5032850;28;20041;-76
2022/11/01 03:31:22;;;;;;;13.02;8.68;;;;;;;10.48;100.00;96250.53;5032407;28;20117;-77
2022/11/01 03:33:53;;;;;;;14.03;7.70;;;;;;;10.42;100.00;96254.59;5014723;28;20049;-76
2022/11/01 03:36:21;;;;;;;14.47;8.17;;;;;;;10.45;100.00;96254.28;5031172;28;20029;-76
2022/11/01 03:38:58;;;;;;;14.33;8.20;;;;;;;10.47;100.00;96264.66;5031269;28;20033;-76
2022/11/01 03:41:27;;;;;;;14.00;8.37;;;;;;;10.41;100.00;96260.84;5014672;28;20025;-77
2022/11/01 03:43:54;;;;;;;14.87;7.73;;;;;;;10.36;100.00;96274.47;5032689;28;20034;-76
2022/11/01 03:46:20;;;;;;;12.87;8.50;;;;;;;10.39;100.00;96275.94;5014926;28;20048;-77
2022/11/01 03:48:45;;;;;;;12.83;8.27;;;;;;;10.40;100.00;96272.34;5032642;28;20406;-76
2022/11/01 03:51:11;;;;;;;16.23;7.90;;;;;;;10.46;100.00;96271.72;5032595;28;20029;-76
2022/11/01 03:53:37;;;;;;;12.97;6.90;;;;;;;10.52;100.00;96276.34;5031236;28;20077;-76
2022/11/01 03:56:03;;;;;;;12.27;7.10;;;;;;;10.53;100.00;96278.00;5032404;28;20605;-76
2022/11/01 03:58:40;;;;;;;10.10;6.87;;;;;;;10.59;100.00;96279.97;5030832;28;20045;-77
2022/11/01 04:01:11;;;;;;;10.60;7.17;;;;;;;10.69;100.00;96292.19;5031154;28;20025;-77
2022/11/01 04:03:37;;;;;;;11.50;7.13;;;;;;;10.68;100.00;96285.28;5031749;28;20386;-76
2022/11/01 04:06:04;;;;;;;10.10;6.93;;;;;;;10.69;100.00;96292.19;5013765;28;20491;-77
2022/11/01 04:08:30;;;;;;;12.27;7.23;;;;;;;10.63;100.00;96291.03;5029459;28;20041;-77
2022/11/01 04:10:56;;;;;;;11.73;7.30;;;;;;;10.47;100.00;96302.28;5026287;28;20018;-76
2022/11/01 04:13:22;;;;;;;14.27;7.00;;;;;;;10.56;100.00;96303.13;5011714;28;20088;-76
2022/11/01 04:21:19;;;;;;;11.00;7.17;;;;;;;10.47;100.00;96320.69;5031717;28;20069;-77
2022/11/01 04:23:45;;;;;;;15.07;8.43;;;;;;;10.49;100.00;96326.59;5031528;28;20051;-77
2022/11/01 04:26:14;;;;;;;15.90;7.87;;;;;;;10.47;100.00;96323.31;5031403;28;20672;-76
2022/11/01 04:28:40;;;;;;;14.23;7.97;;;;;;;10.50;100.00;96324.81;5017536;28;20092;-76
2022/11/01 04:31:06;;;;;;;14.73;7.67;;;;;;;10.59;100.00;96337.00;5010033;28;20041;-77
2022/11/01 04:33:32;;;;;;;11.93;7.70;;;;;;;10.69;100.00;96335.09;5011190;28;20065;-77
2022/11/01 04:36:02;;;;;;;14.87;6.80;;;;;;;10.73;100.00;96339.06;5028889;28;20095;-76
2022/11/01 04:38:28;;;;;;;14.17;6.87;;;;;;;10.80;100.00;96326.94;5029880;28;20045;-77
2022/11/01 04:40:53;;;;;;;14.80;7.70;;;;;;;10.99;100.00;96325.03;5031029;28;20040;-76
2022/11/01 04:43:21;;;;;;;14.20;7.37;;;;;;;11.11;100.00;96328.19;5031716;28;20029;-77
2022/11/01 04:45:55;;;;;;;14.97;7.47;;;;;;;11.26;100.00;96327.41;5031647;28;20040;-76
2022/11/01 04:48:22;;;;;;;14.27;7.00;;;;;;;11.64;100.00;96321.72;5031897;28;20033;-76
2022/11/01 04:50:48;;;;;;;12.23;6.30;;;;;;;11.85;100.00;96326.53;5030017;28;20117;-77
2022/11/01 04:53:14;;;;;;;20.60;7.03;;;;;;;12.06;100.00;96323.38;5029770;28;20125;-77
2022/11/01 04:55:40;;;;;;;16.20;7.93;;;;;;;12.11;100.00;96332.44;5031377;28;20557;-77
2022/11/01 04:58:06;;;;;;;15.53;7.83;;;;;;;12.14;100.00;96329.47;5030298;28;20037;-77
2022/11/01 05:00:34;;;;;;;14.67;7.53;;;;;;;12.18;100.00;96330.78;5029921;28;20033;-76
2022/11/01 05:03:07;;;;;;;14.80;7.43;;;;;;;12.16;100.00;96332.75;5029742;28;20038;-76
2022/11/01 05:05:34;;;;;;;15.20;7.30;;;;;;;12.12;100.00;96343.81;5013033;28;20037;-76
2022/11/01 05:08:01;;;;;;;14.40;7.83;;;;;;;12.08;100.00;96339.88;5028910;28;20068;-76
2022/11/01 05:10:26;;;;;;;14.63;8.43;;;;;;;11.99;100.00;96344.31;5016236;28;20080;-76
2022/11/01 05:12:52;;;;;;;16.53;7.23;;;;;;;11.99;100.00;96339.84;5029315;28;20029;-76
2022/11/01 05:15:18;;;;;;;11.57;6.50;;;;;;;12.19;100.00;96339.50;5029477;28;20037;-77
2022/11/01 05:17:43;;;;;;;17.03;6.57;;;;;;;12.30;100.00;96352.34;5030571;28;20069;-76
2022/11/01 05:20:09;;;;;;;9.33;5.03;;;;;;;12.44;100.00;96348.19;5029665;28;20025;-76
2022/11/01 05:22:35;;;;;;;14.37;5.77;;;;;;;12.64;100.00;96348.66;5029020;28;20048;-76
2022/11/01 05:25:01;;;;;;;13.50;5.07;;;;;;;12.82;100.00;96351.09;5030626;28;20029;-76
2022/11/01 05:27:26;;;;;;;9.87;3.57;;;;;;;12.94;100.00;96342.63;5012965;28;20036;-76
2022/11/01 05:29:52;;;;;;;7.53;4.07;;;;;;;13.05;100.00;96338.78;5012549;28;20441;-76
2022/11/01 05:32:18;;;;;;;11.67;3.63;;;;;;;13.27;100.00;96345.13;5029075;28;20033;-77
2022/11/01 05:34:45;;;;;;;8.23;3.33;;;;;;;13.30;100.00;96331.59;5029016;28;20703;-77
2022/11/01 05:37:11;;;;;;;15.43;3.27;;;;;;;13.35;100.00;96344.28;5029056;28;20486;-76
2022/11/01 05:39:37;;;;;;;7.07;3.23;;;;;;;13.33;100.00;96335.69;5030281;28;20037;-77
2022/11/01 05:42:03;;;;;;;10.87;3.23;;;;;;;13.42;100.00;96334.66;5030602;28;20032;-77
2022/11/01 05:44:28;;;;;;;7.60;3.27;;;;;;;13.48;100.00;96341.06;5024508;28;20069;-77
2022/11/01 05:46:54;;;;;;;7.73;3.30;;;;;;;13.41;100.00;96341.78;4992602;28;20153;-76
2022/11/01 05:49:21;;;;;;;10.07;2.93;;;;;;;13.66;100.00;96339.78;5010409;28;20029;-77
2022/11/01 05:51:47;;;;;;;8.00;3.43;;;;;;;13.61;100.00;96351.88;5024075;28;20059;-76
2022/11/01 05:54:12;;;;;;;8.80;3.00;;;;;;;13.64;100.00;96341.78;5030149;28;20719;-76
2022/11/01 05:56:38;;;;;;;10.97;3.43;;;;;;;13.58;100.00;96350.41;5030385;28;20156;-77
2022/11/01 05:59:04;;;;;;;4.97;2.47;;;;;;;13.55;100.00;96358.69;5029795;28;20037;-76
2022/11/01 06:01:30;;;;;;;8.57;3.10;;;;;;;13.48;100.00;96359.53;5030149;28;20037;-81
2022/11/01 06:04:00;;;;;;;8.60;3.43;;;;;;;13.43;100.00;96360.91;5028686;28;20043;-77
2022/11/01 06:06:30;;;;;;;6.80;3.23;;;;;;;13.37;100.00;96361.59;5030196;28;20034;-77
2022/11/01 06:08:56;;;;;;;10.13;2.93;;;;;;;13.31;100.00;96362.31;5030084;28;20037;-76
2022/11/01 06:11:23;;;;;;;6.43;2.90;;;;;;;13.33;100.00;96367.41;5028687;28;20112;-77
2022/11/01 06:13:57;;;;;;;8.50;2.93;;;;;;;13.29;100.00;96368.75;5030017;28;20025;-76
2022/11/01 06:16:23;;;;;;;;;;;;;;;13.23;100.00;96366.75;5030489;28;20071;-76
2022/11/01 06:18:49;;;;;;;9.43;3.27;;;;;;;13.17;100.00;96368.25;5028952;28;19913;-77
2022/11/01 06:21:15;;;;;;;11.73;4.30;;;;;;;13.15;100.00;96375.56;5029907;28;20029;-77
2022/11/01 06:23:45;;;;;;;5.50;2.90;;;;;;;13.06;100.00;96379.22;5028527;28;20029;-77
2022/11/01 06:26:10;;;;;;;5.67;2.90;;;;;;;12.98;100.00;96375.59;5030156;28;20542;-77
2022/11/01 06:28:36;;;;;;;9.17;3.27;;;;;;;12.92;100.00;96393.94;5028386;28;20029;-77
2022/11/01 06:31:02;;;;;;;6.97;3.27;;;;;;;12.86;100.00;96390.16;5031766;28;20464;-76
2022/11/01 06:33:29;;;;;;;9.30;3.30;;;;;;;12.82;100.00;96396.78;5032592;28;20029;-77
2022/11/01 06:35:55;;;;;;;6.40;3.87;;;;;;;12.78;100.00;96408.66;5033549;28;20041;-77
2022/11/01 06:38:21;;;;;;;6.57;3.00;;;;;;;12.80;100.00;96411.94;5033757;28;20091;-77
2022/11/01 06:40:46;;;;;;;5.97;3.13;;;;;;;12.84;100.00;96405.31;5032622;28;20029;-77
2022/11/01 06:43:13;;;;;;;9.60;3.40;;;;;;;12.88;100.00;96411.13;5032285;28;20045;-77
2022/11/01 06:45:38;;;;;;;6.77;2.70;;;;;;;12.86;100.00;96421.81;5017134;28;20056;-77
2022/11/01 06:48:04;;;;;;;6.30;2.53;;;;;;;12.92;100.00;96420.34;5053339;28;20033;-77
2022/11/01 06:50:31;;;;;;;9.27;3.30;;;;;;;13.01;100.00;96429.03;5052378;28;20025;-77
2022/11/01 06:52:58;;;;;;;5.37;2.57;;;;;;;13.08;100.00;96427.41;5053566;28;20107;-77
2022/11/01 06:55:25;;;;;;;7.23;2.97;;;;;;;13.10;100.00;96439.41;5053579;28;20033;-77
2022/11/01 06:57:55;;;;;;;6.17;3.43;;;;;;;13.19;100.00;96445.50;5051634;28;20429;-77
2022/11/01 07:00:21;;;;;;;8.03;3.40;;;;;;;13.30;100.00;96442.50;5046803;28;20491;-76
2022/11/01 07:02:46;;;;;;;8.80;2.83;;;;;;;13.44;100.00;96444.44;5033562;28;20421;-77
2022/11/01 07:05:12;;;;;;;6.93;2.90;;;;;;;13.44;100.00;96447.06;5033086;28;20120;-77
2022/11/01 07:07:38;;;;;;;6.30;3.07;;;;;;;13.55;100.00;96453.81;5031777;28;20068;-77
2022/11/01 07:10:04;;;;;;;6.23;2.20;;;;;;;13.51;100.00;96462.25;5031630;28;20083;-77
2022/11/01 07:12:30;;;;;;;6.23;2.40;;;;;;;13.67;100.00;96475.38;5031663;28;20539;-77
2022/11/01 07:14:55;;;;;;;6.43;3.03;;;;;;;13.60;100.00;96477.06;5031823;28;20038;-77
2022/11/01 07:17:21;;;;;;;4.27;2.00;;;;;;;13.63;100.00;96479.38;5031535;28;20509;-76
2022/11/01 07:19:46;;;;;;;6.97;2.40;;;;;;;13.60;100.00;96485.81;5032668;28;20044;-77
2022/11/01 07:22:13;;;;;;;7.17;1.90;;;;;;;13.62;100.00;96483.03;5031460;28;20029;-77
2022/11/01 07:24:39;;;;;;;6.23;2.17;;;;;;;13.60;100.00;96488.47;5031478;28;20056;-77
2022/11/01 07:27:05;;;;;;;9.13;1.87;;;;;;;13.61;100.00;96486.63;5032437;28;20096;-77
2022/11/01 07:29:30;;;;;;;7.57;2.40;;;;;;;13.68;100.00;96496.38;5031733;28;20049;-77
2022/11/01 07:31:56;;;;;;;3.00;1.57;;;;;;;13.83;100.00;96488.53;5031794;28;20041;-77
2022/11/01 07:34:22;;;;;;;3.40;1.60;;;;;;;13.92;100.00;96486.69;5031759;28;20029;-77
2022/11/01 07:36:51;;;;;;;5.10;1.80;;;;;;;13.96;100.00;96487.16;5031668;28;20607;-77
2022/11/01 07:39:17;;;;;;;4.10;1.60;;;;;;;14.11;100.00;96490.66;5031818;28;20065;-77
2022/11/01 07:41:44;;;;;;;6.97;2.23;;;;;;;14.25;100.00;96492.59;5014583;28;20513;-77
2022/11/01 07:44:09;;;;;;;4.33;1.40;;;;;;;14.35;100.00;96474.66;5014557;28;20037;-77
2022/11/01 07:46:35;;;;;;;3.27;1.60;;;;;;;14.47;100.00;96475.03;5032343;28;20048;-77
2022/11/01 07:49:00;;;;;;;3.67;1.63;;;;;;;14.62;100.00;96483.09;5032498;28;20033;-77
2022/11/01 07:51:27;;;;;;;3.80;1.40;;;;;;;14.70;100.00;96496.25;5031259;28;20048;-77
2022/11/01 07:53:52;;;;;;;3.85;1.15;;;;;;;14.80;100.00;96494.16;5032759;28;20045;-76
2022/11/01 07:56:20;;;;;;;3.70;1.55;;;;;;;14.85;100.00;96494.47;5032539;28;20040;-77
2022/11/01 07:58:46;;;;;;;6.00;1.40;;;;;;;14.98;100.00;96483.22;5032147;28;20033;-77
2022/11/01 08:01:12;;;;;;;4.20;1.73;;;;;;;14.97;100.00;96483.41;5031260;28;20036;-77
2022/11/01 08:03:37;;;;;;;3.35;1.33;;;;;;;14.97;100.00;96486.88;5032271;28;20399;-77
2022/11/01 08:06:03;;;;;;;4.47;1.58;;;;;;;15.01;100.00;96479.41;5032092;28;20473;-76
2022/11/01 08:08:29;;;;;;;4.13;1.60;;;;;;;15.00;100.00;96485.72;5031865;28;20029;-77
2022/11/01 08:10:54;;;;;;;4.32;1.20;;;;;;;15.09;100.00;96480.16;5031746;28;20508;-77
2022/11/01 08:13:22;;;;;;;5.10;1.55;;;;;;;15.15;100.00;96473.28;5032123;28;20503;-77
2022/11/01 08:15:49;;;;;;;6.43;1.50;;;;;;;15.22;100.00;96474.19;5030976;28;20033;-77
2022/11/01 08:18:16;;;;;;;3.00;1.40;;;;;;;15.39;100.00;96487.28;5030591;28;20121;-77
2022/11/01 08:20:42;;;;;;;4.43;1.30;;;;;;;15.41;100.00;96482.63;5030707;28;20092;-77
2022/11/01 08:23:08;;;;;;;4.45;1.70;;;;;;;15.51;100.00;96467.25;5031931;28;20052;-77
2022/11/01 08:25:34;;;;;;;4.78;1.77;;;;;;;15.54;100.00;96466.91;5032172;28;20061;-77
2022/11/01 08:28:02;;;;;;;3.30;1.17;;;;;;;15.92;100.00;96462.28;5031301;28;20092;-77
2022/11/01 08:30:27;;;;;;;4.78;1.20;;;;;;;16.09;100.00;96473.47;5031575;28;20122;-77
2022/11/01 08:33:00;;;;;;;2.03;1.02;;;;;;;16.40;100.00;96483.00;5031667;28;20033;-77
2022/11/01 08:35:26;;;;;;;4.57;1.42;;;;;;;16.64;100.00;96477.28;5031225;28;20033;-77
2022/11/01 08:37:53;;;;;;;3.40;1.40;;;;;;;16.96;100.00;96478.59;5031164;28;20037;-77
2022/11/01 08:40:19;;;;;;;4.30;1.45;;;;;;;17.22;100.00;96471.81;5031376;28;20039;-77
2022/11/01 08:42:46;;;;;;;4.70;1.65;;;;;;;16.88;100.00;96477.94;5030141;28;20718;-77
2022/11/01 08:45:11;;;;;;;2.67;1.42;;;;;;;16.45;100.00;96485.88;5031409;28;20029;-77
2022/11/01 08:47:38;;;;;;;2.28;1.10;;;;;;;16.56;100.00;96500.50;5029919;28;20255;-77
2022/11/01 08:50:05;;;;;;;6.45;1.65;;;;;;;16.43;100.00;96509.13;5031263;28;20106;-77
2022/11/01 08:52:31;;;;;;;4.78;1.27;;;;;;;16.11;100.00;96515.75;5031408;28;20084;-77
2022/11/01 08:54:56;;;;;;;3.50;1.50;;;;;;;15.89;100.00;96521.00;5029851;28;20025;-77
2022/11/01 08:57:22;;;;;;;5.80;1.50;;;;;;;15.66;100.00;96531.75;5031148;28;20037;-77
2022/11/01 08:59:48;;;;;;;2.42;1.30;;;;;;;15.57;100.00;96530.97;5029954;28;20033;-76
2022/11/01 09:02:13;;;;;;;5.28;2.20;;;;;;;15.73;100.00;96532.66;5031766;28;20590;-78
2022/11/01 09:04:39;;;;;;;4.05;1.60;;;;;;;15.83;100.00;96540.31;5031440;28;20036;-77
2022/11/01 09:07:05;;;;;;;7.60;1.50;;;;;;;15.68;100.00;96537.66;5030508;28;20796;-77
2022/11/01 09:09:30;;;;;;;3.20;1.33;;;;;;;15.65;100.00;96543.28;5013596;28;20022;-76
2022/11/01 09:11:56;;;;;;;4.45;1.88;;;;;;;15.60;100.00;96540.38;5031186;28;20127;-77
2022/11/01 09:14:23;;;;;;;2.47;1.00;;;;;;;15.46;100.00;96549.13;5031524;28;20483;-77
2022/11/01 09:16:50;;;;;;;2.22;1.10;;;;;;;15.54;100.00;96547.25;5029769;28;20083;-77
2022/11/01 09:19:16;;;;;;;3.65;1.10;;;;;;;15.51;100.00;96552.06;5013388;28;20656;-77
2022/11/01 09:21:45;;;;;;;3.83;1.02;;;;;;;15.57;100.00;96554.00;5030162;28;20086;-77
2022/11/01 09:24:12;;;;;;;1.77;0.90;;;;;;;15.54;100.00;96554.38;5029852;28;20494;-76
2022/11/01 09:26:38;;;;;;;1.63;0.82;;;;;;;15.46;100.00;96559.75;5031132;28;20037;-77
2022/11/01 09:29:04;;;;;;;1.50;1.00;;;;;;;15.61;100.00;96559.75;5029378;28;20111;-77
2022/11/01 09:31:30;;;;;;;4.03;0.95;;;;;;;15.54;100.00;96560.50;5029540;28;20056;-77
2022/11/01 09:33:57;;;;;;;1.67;0.73;;;;;;;15.49;100.00;96565.53;5012747;28;20038;-77
2022/11/01 09:36:24;;;;;;;1.58;0.90;;;;;;;15.51;100.00;96568.81;5030569;28;20055;-77
2022/11/01 09:38:50;;;;;;;3.03;0.90;;;;;;;15.61;100.00;96567.72;5030900;28;20044;-77
2022/11/01 09:41:38;;;;;;;4.40;1.02;;;;;;;15.63;100.00;96563.88;5029048;28;20029;-77
2022/11/01 09:44:06;;;;;;;2.97;0.80;;;;;;;15.64;100.00;96568.19;5030228;28;20502;-77
2022/11/01 09:46:44;;;;;;;1.70;0.73;;;;;;;15.69;100.00;96572.94;5029070;28;20060;-76
2022/11/01 09:49:18;;;;;;;1.35;0.50;;;;;;;15.76;100.00;96573.84;5029222;28;20035;-77
2022/11/01 09:51:43;;;;;;;3.63;0.73;;;;;;;15.74;100.00;96576.72;5030724;28;20037;-77
2022/11/01 09:54:09;;;;;;;2.35;0.70;;;;;;;15.71;100.00;96574.41;5012586;28;20049;-76
2022/11/01 09:56:52;;;;;;;1.38;0.70;;;;;;;15.84;100.00;96572.97;5028971;28;20057;-76
2022/11/01 09:59:20;;;;;;;3.47;0.70;;;;;;;15.72;100.00;96576.06;5028824;28;20601;-77
2022/11/01 10:02:11;;;;;;;1.63;0.68;;;;;;;15.57;100.00;96581.34;5029062;28;20764;-77
2022/11/01 10:04:39;;;;;;;1.60;0.73;;;;;;;15.62;100.00;96582.63;5010470;28;20030;-77
2022/11/01 10:07:34;;;;;;;0.98;0.50;;;;;;;15.55;100.00;96585.97;5008494;28;20052;-77
2022/11/01 10:10:24;;;;;;;1.50;0.75;;;;;;;15.72;100.00;96586.66;5008914;28;20033;-77
2022/11/01 10:13:14;;;;;;;1.77;0.57;;;;;;;15.67;100.00;96591.72;5009271;28;20045;-77
2022/11/01 10:15:51;;;;;;;1.75;0.55;;;;;;;15.75;100.00;96578.34;5009075;28;20041;-77
2022/11/01 10:18:24;;;;;;;1.52;0.63;;;;;;;15.75;100.00;96581.00;5009051;28;20129;-77
2022/11/01 10:20:51;;;;;;;0.80;0.60;;;;;;;15.80;100.00;96583.13;5009134;28;20034;-77
2022/11/01 10:23:21;;;;;;;1.73;0.60;;;;;;;15.86;100.00;96581.53;5013322;28;20152;-77
2022/11/01 10:25:51;;;;;;;6.10;3.25;;;;;;;15.81;100.00;96581.28;5028753;28;20121;-77
2022/11/01 10:28:49;;;;;;;2.42;0.60;;;;;;;15.74;100.00;96579.34;5028537;28;20034;-77
2022/11/01 10:31:21;;;;;;;2.28;0.60;;;;;;;15.64;100.00;96570.81;4986271;28;20294;-76
2022/11/01 10:33:52;;;;;;;1.58;0.95;;;;;;;15.71;100.00;96570.94;5013084;28;20053;-78
2022/11/01 10:36:25;;;;;;;0.80;0.50;;;;;;;15.81;100.00;96560.06;5030073;28;20372;-78
2022/11/01 10:39:15;;;;;;;1.83;1.00;;;;;;;15.84;100.00;96567.66;5044747;28;20103;-78
2022/11/01 10:41:47;;;;;;;2.38;1.30;;;;;;;16.02;100.00;96565.44;5035207;28;20426;-78
2022/11/01 10:44:24;;;;;;;1.52;0.80;;;;;;;16.37;100.00;96550.56;5028698;28;20029;-78
2022/11/01 10:46:52;;;;;;;1.65;0.88;;;;;;;16.25;100.00;96562.66;5032962;28;20029;-78
2022/11/01 10:49:30;;;;;;;1.13;0.52;;;;;;;16.40;100.00;96559.97;5030740;28;20599;-78
2022/11/01 10:52:01;;;;;;;2.08;0.57;;;;;;;16.64;100.00;96549.00;5032715;28;20547;-78
2022/11/01 10:54:30;;;;;;;2.22;0.70;;;;;;;16.48;100.00;96547.38;5037567;28;20091;-78
2022/11/01 10:57:02;;;;;;;2.05;0.73;;;;;;;16.50;100.00;96547.22;5014366;28;20044;-78
2022/11/01 10:59:38;;;;;;;1.10;0.63;;;;;;;16.87;100.00;96548.00;5036849;28;20489;-78
2022/11/01 11:02:13;;;;;;;2.10;1.00;;;;;;;16.73;100.00;96547.84;5022402;28;20030;-76
2022/11/01 11:04:39;;;;;;;2.88;0.93;;;;;;;16.80;100.00;96547.94;5029158;28;20045;-76
2022/11/01 11:07:12;;;;;;;2.40;1.05;;;;;;;16.87;100.00;96540.03;5028936;28;20030;-77
2022/11/01 11:09:37;;;;;;;2.20;0.65;;;;;;;16.94;100.00;96549.69;5013689;28;20030;-77
2022/11/01 11:12:34;;;;;;;1.35;0.77;;;;;;;17.01;100.00;96555.06;5017295;28;20040;-77
2022/11/01 11:15:15;;;;;;;1.30;0.80;;;;;;;16.81;100.00;96548.78;5020532;28;20052;-77
2022/11/01 11:17:45;;;;;;;1.48;0.52;;;;;;;16.92;100.00;96545.59;5015190;28;20435;-77
2022/11/01 11:20:15;;;;;;;2.35;0.60;;;;;;;16.87;100.00;96546.16;5026955;28;20037;-77
2022/11/01 11:22:42;;;;;;;1.13;0.60;;;;;;;16.84;100.00;96556.34;5035289;28;20040;-77
2022/11/01 11:25:20;;;;;;;1.25;0.70;;;;;;;16.88;100.00;96555.78;5019297;28;20121;-77
2022/11/01 11:27:55;;;;;;;1.13;0.65;;;;;;;16.93;100.00;96558.69;5021487;28;20124;-77
2022/11/01 11:30:34;;;;;;;1.10;0.60;;;;;;;16.98;100.00;96554.63;5016508;28;20112;-78
2022/11/01 11:33:03;;;;;;;0.40;0.40;;;;;;;16.87;100.00;96563.94;5020574;28;20037;-77
2022/11/01 11:35:31;;;;;;;1.13;0.73;;;;;;;16.78;100.00;96565.91;5006444;28;20087;-77
2022/11/01 11:38:05;;;;;;;3.63;1.05;;;;;;;16.79;100.00;96569.38;5023693;28;20087;-77